sensor_id;sensor_type;location;lat;lon;timestamp;temperature;humidity
59128;DHT22;44912;52.754;5.994;2024-03-08T00:02:00;3.00;99.90
59128;DHT22;44912;52.754;5.994;2024-03-08T00:04:25;3.00;99.90
59128;DHT22;44912;52.754;5.994;2024-03-08T00:06:51;2.90;99.90
59128;DHT22;44912;52.754;5.994;2024-03-08T00:09:17;2.90;99.90
59128;DHT22;44912;52.754;5.994;2024-03-08T00:11:43;2.90;99.90
59128;DHT22;44912;52.754;5.994;2024-03-08T00:14:09;2.80;99.90
59128;DHT22;44912;52.754;5.994;2024-03-08T00:16:34;2.80;99.90
59128;DHT22;44912;52.754;5.994;2024-03-08T00:19:01;2.80;99.90
59128;DHT22;44912;52.754;5.994;2024-03-08T00:21:26;2.90;99.90
59128;DHT22;44912;52.754;5.994;2024-03-08T00:23:53;2.70;99.90
59128;DHT22;44912;52.754;5.994;2024-03-08T00:26:20;2.70;99.90
59128;DHT22;44912;52.754;5.994;2024-03-08T00:28:48;2.60;99.90
59128;DHT22;44912;52.754;5.994;2024-03-08T00:31:14;2.60;99.90
59128;DHT22;44912;52.754;5.994;2024-03-08T00:33:42;2.60;99.90
59128;DHT22;44912;52.754;5.994;2024-03-08T00:36:08;2.60;99.90
59128;DHT22;44912;52.754;5.994;2024-03-08T00:38:33;2.60;99.90
59128;DHT22;44912;52.754;5.994;2024-03-08T00:40:59;2.50;99.90
59128;DHT22;44912;52.754;5.994;2024-03-08T00:43:25;2.60;99.90
59128;DHT22;44912;52.754;5.994;2024-03-08T00:45:51;2.50;99.90
59128;DHT22;44912;52.754;5.994;2024-03-08T00:48:17;2.60;99.90
59128;DHT22;44912;52.754;5.994;2024-03-08T00:50:42;2.80;99.90
59128;DHT22;44912;52.754;5.994;2024-03-08T00:53:14;2.70;99.90
59128;DHT22;44912;52.754;5.994;2024-03-08T00:55:39;2.70;99.90
59128;DHT22;44912;52.754;5.994;2024-03-08T00:58:05;2.70;99.90
59128;DHT22;44912;52.754;5.994;2024-03-08T01:00:31;2.70;99.90
59128;DHT22;44912;52.754;5.994;2024-03-08T01:02:56;2.70;99.90
59128;DHT22;44912;52.754;5.994;2024-03-08T01:05:22;2.70;99.90
59128;DHT22;44912;52.754;5.994;2024-03-08T01:07:51;2.70;99.90
59128;DHT22;44912;52.754;5.994;2024-03-08T01:10:17;2.70;99.90
59128;DHT22;44912;52.754;5.994;2024-03-08T01:12:42;2.70;99.90
59128;DHT22;44912;52.754;5.994;2024-03-08T01:15:09;2.60;99.90
59128;DHT22;44912;52.754;5.994;2024-03-08T01:17:36;2.70;99.90
59128;DHT22;44912;52.754;5.994;2024-03-08T01:20:03;2.60;99.90
59128;DHT22;44912;52.754;5.994;2024-03-08T01:22:29;2.60;99.90
59128;DHT22;44912;52.754;5.994;2024-03-08T01:24:55;2.70;99.90
59128;DHT22;44912;52.754;5.994;2024-03-08T01:27:21;2.60;99.90
59128;DHT22;44912;52.754;5.994;2024-03-08T01:29:47;2.60;99.90
59128;DHT22;44912;52.754;5.994;2024-03-08T01:32:13;2.60;99.90
59128;DHT22;44912;52.754;5.994;2024-03-08T01:34:40;2.50;99.90
59128;DHT22;44912;52.754;5.994;2024-03-08T01:37:06;2.50;99.90
59128;DHT22;44912;52.754;5.994;2024-03-08T01:39:32;2.50;99.90
59128;DHT22;44912;52.754;5.994;2024-03-08T01:41:58;2.50;99.90
59128;DHT22;44912;52.754;5.994;2024-03-08T01:44:24;2.50;99.90
59128;DHT22;44912;52.754;5.994;2024-03-08T01:46:51;2.40;99.90
59128;DHT22;44912;52.754;5.994;2024-03-08T01:49:19;2.40;99.90
59128;DHT22;44912;52.754;5.994;2024-03-08T01:51:47;2.40;99.90
59128;DHT22;44912;52.754;5.994;2024-03-08T01:54:16;2.40;99.90
59128;DHT22;44912;52.754;5.994;2024-03-08T01:56:42;2.40;99.90
59128;DHT22;44912;52.754;5.994;2024-03-08T01:59:08;2.40;99.90
59128;DHT22;44912;52.754;5.994;2024-03-08T02:01:34;2.40;99.90
59128;DHT22;44912;52.754;5.994;2024-03-08T02:04:00;2.40;99.90
59128;DHT22;44912;52.754;5.994;2024-03-08T02:06:25;2.30;99.90
59128;DHT22;44912;52.754;5.994;2024-03-08T02:08:51;2.40;99.90
59128;DHT22;44912;52.754;5.994;2024-03-08T02:11:17;2.40;99.90
59128;DHT22;44912;52.754;5.994;2024-03-08T02:13:44;2.40;99.90
59128;DHT22;44912;52.754;5.994;2024-03-08T02:16:10;2.30;99.90
59128;DHT22;44912;52.754;5.994;2024-03-08T02:18:36;2.30;99.90
59128;DHT22;44912;52.754;5.994;2024-03-08T02:21:03;2.30;99.90
59128;DHT22;44912;52.754;5.994;2024-03-08T02:23:29;2.30;99.90
59128;DHT22;44912;52.754;5.994;2024-03-08T02:25:56;2.30;99.90
59128;DHT22;44912;52.754;5.994;2024-03-08T02:28:22;2.30;99.90
59128;DHT22;44912;52.754;5.994;2024-03-08T02:30:49;2.20;99.90
59128;DHT22;44912;52.754;5.994;2024-03-08T02:33:17;2.20;99.90
59128;DHT22;44912;52.754;5.994;2024-03-08T02:35:44;2.20;99.90
59128;DHT22;44912;52.754;5.994;2024-03-08T02:38:14;2.20;99.90
59128;DHT22;44912;52.754;5.994;2024-03-08T02:40:42;2.20;99.90
59128;DHT22;44912;52.754;5.994;2024-03-08T02:43:09;2.10;99.90
59128;DHT22;44912;52.754;5.994;2024-03-08T02:45:34;2.20;99.90
59128;DHT22;44912;52.754;5.994;2024-03-08T02:48:00;2.20;99.90
59128;DHT22;44912;52.754;5.994;2024-03-08T02:50:26;2.20;99.90
59128;DHT22;44912;52.754;5.994;2024-03-08T02:52:51;2.10;99.90
59128;DHT22;44912;52.754;5.994;2024-03-08T02:55:18;2.10;99.90
59128;DHT22;44912;52.754;5.994;2024-03-08T02:57:43;2.10;99.90
59128;DHT22;44912;52.754;5.994;2024-03-08T03:00:10;2.10;99.90
59128;DHT22;44912;52.754;5.994;2024-03-08T03:02:36;2.10;99.90
59128;DHT22;44912;52.754;5.994;2024-03-08T03:05:03;2.10;99.90
59128;DHT22;44912;52.754;5.994;2024-03-08T03:07:32;2.10;99.90
59128;DHT22;44912;52.754;5.994;2024-03-08T03:09:59;2.10;99.90
59128;DHT22;44912;52.754;5.994;2024-03-08T03:12:29;2.10;99.90
59128;DHT22;44912;52.754;5.994;2024-03-08T03:14:55;2.20;99.90
59128;DHT22;44912;52.754;5.994;2024-03-08T03:17:22;2.20;99.90
59128;DHT22;44912;52.754;5.994;2024-03-08T03:19:48;2.20;99.90
59128;DHT22;44912;52.754;5.994;2024-03-08T03:22:14;2.10;99.90
59128;DHT22;44912;52.754;5.994;2024-03-08T03:24:41;2.10;99.90
59128;DHT22;44912;52.754;5.994;2024-03-08T03:27:07;2.10;99.90
59128;DHT22;44912;52.754;5.994;2024-03-08T03:29:39;2.20;99.90
59128;DHT22;44912;52.754;5.994;2024-03-08T03:32:08;2.20;99.90
59128;DHT22;44912;52.754;5.994;2024-03-08T03:34:34;2.10;99.90
59128;DHT22;44912;52.754;5.994;2024-03-08T03:37:02;2.20;99.90
59128;DHT22;44912;52.754;5.994;2024-03-08T03:39:29;2.10;99.90
59128;DHT22;44912;52.754;5.994;2024-03-08T03:41:58;2.10;99.90
59128;DHT22;44912;52.754;5.994;2024-03-08T03:44:24;2.10;99.90
59128;DHT22;44912;52.754;5.994;2024-03-08T03:46:50;2.10;99.90
59128;DHT22;44912;52.754;5.994;2024-03-08T03:49:18;2.10;99.90
59128;DHT22;44912;52.754;5.994;2024-03-08T03:51:44;2.10;99.90
59128;DHT22;44912;52.754;5.994;2024-03-08T03:54:10;2.20;99.90
59128;DHT22;44912;52.754;5.994;2024-03-08T03:56:36;2.10;99.90
59128;DHT22;44912;52.754;5.994;2024-03-08T03:59:02;2.10;99.90
59128;DHT22;44912;52.754;5.994;2024-03-08T04:01:27;2.10;99.90
59128;DHT22;44912;52.754;5.994;2024-03-08T04:03:54;2.10;99.90
59128;DHT22;44912;52.754;5.994;2024-03-08T04:06:20;2.10;99.90
59128;DHT22;44912;52.754;5.994;2024-03-08T04:08:46;2.10;99.90
59128;DHT22;44912;52.754;5.994;2024-03-08T04:11:11;2.10;99.90
59128;DHT22;44912;52.754;5.994;2024-03-08T04:13:37;2.10;99.90
59128;DHT22;44912;52.754;5.994;2024-03-08T04:16:03;2.10;99.90
59128;DHT22;44912;52.754;5.994;2024-03-08T04:18:33;2.10;99.90
59128;DHT22;44912;52.754;5.994;2024-03-08T04:21:02;2.10;99.90
59128;DHT22;44912;52.754;5.994;2024-03-08T04:23:27;2.10;99.90
59128;DHT22;44912;52.754;5.994;2024-03-08T04:25:54;2.10;99.90
59128;DHT22;44912;52.754;5.994;2024-03-08T04:28:19;2.10;99.90
59128;DHT22;44912;52.754;5.994;2024-03-08T04:30:45;2.10;99.90
59128;DHT22;44912;52.754;5.994;2024-03-08T04:33:11;2.10;99.90
59128;DHT22;44912;52.754;5.994;2024-03-08T04:35:37;2.10;99.90
59128;DHT22;44912;52.754;5.994;2024-03-08T04:38:03;2.20;99.90
59128;DHT22;44912;52.754;5.994;2024-03-08T04:40:31;2.10;99.90
59128;DHT22;44912;52.754;5.994;2024-03-08T04:42:57;2.10;99.90
59128;DHT22;44912;52.754;5.994;2024-03-08T04:45:24;2.20;99.90
59128;DHT22;44912;52.754;5.994;2024-03-08T04:47:51;2.10;99.90
59128;DHT22;44912;52.754;5.994;2024-03-08T04:50:18;2.10;99.90
59128;DHT22;44912;52.754;5.994;2024-03-08T04:52:44;2.10;99.90
59128;DHT22;44912;52.754;5.994;2024-03-08T04:55:09;2.10;99.90
59128;DHT22;44912;52.754;5.994;2024-03-08T04:57:35;2.10;99.90
59128;DHT22;44912;52.754;5.994;2024-03-08T05:00:02;2.00;99.90
59128;DHT22;44912;52.754;5.994;2024-03-08T05:02:29;2.00;99.90
59128;DHT22;44912;52.754;5.994;2024-03-08T05:04:56;2.00;99.90
59128;DHT22;44912;52.754;5.994;2024-03-08T05:07:21;2.00;99.90
59128;DHT22;44912;52.754;5.994;2024-03-08T05:09:47;2.00;99.90
59128;DHT22;44912;52.754;5.994;2024-03-08T05:12:18;2.00;99.90
59128;DHT22;44912;52.754;5.994;2024-03-08T05:14:45;2.00;99.90
59128;DHT22;44912;52.754;5.994;2024-03-08T05:17:12;2.00;99.90
59128;DHT22;44912;52.754;5.994;2024-03-08T05:19:37;2.00;99.90
59128;DHT22;44912;52.754;5.994;2024-03-08T05:22:03;2.00;99.90
59128;DHT22;44912;52.754;5.994;2024-03-08T05:24:30;2.00;99.90
59128;DHT22;44912;52.754;5.994;2024-03-08T05:26:55;2.00;99.90
59128;DHT22;44912;52.754;5.994;2024-03-08T05:29:21;2.00;99.90
59128;DHT22;44912;52.754;5.994;2024-03-08T05:31:48;2.00;99.90
59128;DHT22;44912;52.754;5.994;2024-03-08T05:34:15;1.90;99.90
59128;DHT22;44912;52.754;5.994;2024-03-08T05:36:41;1.90;99.90
59128;DHT22;44912;52.754;5.994;2024-03-08T05:39:15;1.90;99.90
59128;DHT22;44912;52.754;5.994;2024-03-08T05:41:44;1.90;99.90
59128;DHT22;44912;52.754;5.994;2024-03-08T05:44:11;1.90;99.90
59128;DHT22;44912;52.754;5.994;2024-03-08T05:46:37;1.90;99.90
59128;DHT22;44912;52.754;5.994;2024-03-08T05:49:06;1.90;99.90
59128;DHT22;44912;52.754;5.994;2024-03-08T05:51:33;1.90;99.90
59128;DHT22;44912;52.754;5.994;2024-03-08T05:54:04;1.90;99.90
59128;DHT22;44912;52.754;5.994;2024-03-08T05:56:31;1.90;99.90
59128;DHT22;44912;52.754;5.994;2024-03-08T05:58:57;1.80;99.90
59128;DHT22;44912;52.754;5.994;2024-03-08T06:01:26;1.80;99.90
59128;DHT22;44912;52.754;5.994;2024-03-08T06:03:55;1.80;99.90
59128;DHT22;44912;52.754;5.994;2024-03-08T06:06:25;1.80;99.90
59128;DHT22;44912;52.754;5.994;2024-03-08T06:08:51;1.80;99.90
59128;DHT22;44912;52.754;5.994;2024-03-08T06:11:18;1.80;99.90
59128;DHT22;44912;52.754;5.994;2024-03-08T06:13:45;1.70;99.90
59128;DHT22;44912;52.754;5.994;2024-03-08T06:16:10;1.70;99.90
59128;DHT22;44912;52.754;5.994;2024-03-08T06:18:37;1.70;99.90
59128;DHT22;44912;52.754;5.994;2024-03-08T06:21:04;1.70;99.90
59128;DHT22;44912;52.754;5.994;2024-03-08T06:23:33;1.70;99.90
59128;DHT22;44912;52.754;5.994;2024-03-08T06:25:59;1.70;99.90
59128;DHT22;44912;52.754;5.994;2024-03-08T06:28:24;1.70;99.90
59128;DHT22;44912;52.754;5.994;2024-03-08T06:30:50;1.70;99.90
59128;DHT22;44912;52.754;5.994;2024-03-08T06:33:17;1.70;99.90
59128;DHT22;44912;52.754;5.994;2024-03-08T06:35:43;1.70;99.90
59128;DHT22;44912;52.754;5.994;2024-03-08T06:38:09;1.70;99.90
59128;DHT22;44912;52.754;5.994;2024-03-08T06:40:34;1.80;99.90
59128;DHT22;44912;52.754;5.994;2024-03-08T06:43:00;1.70;99.90
59128;DHT22;44912;52.754;5.994;2024-03-08T06:45:26;1.80;99.90
59128;DHT22;44912;52.754;5.994;2024-03-08T06:47:52;1.80;99.90
59128;DHT22;44912;52.754;5.994;2024-03-08T06:50:17;1.80;99.90
59128;DHT22;44912;52.754;5.994;2024-03-08T06:52:43;1.80;99.90
59128;DHT22;44912;52.754;5.994;2024-03-08T06:55:10;1.90;99.90
59128;DHT22;44912;52.754;5.994;2024-03-08T06:57:41;1.90;99.90
59128;DHT22;44912;52.754;5.994;2024-03-08T07:00:08;1.90;99.90
59128;DHT22;44912;52.754;5.994;2024-03-08T07:02:46;2.00;99.90
59128;DHT22;44912;52.754;5.994;2024-03-08T07:05:14;2.00;99.90
59128;DHT22;44912;52.754;5.994;2024-03-08T07:07:40;2.10;99.90
59128;DHT22;44912;52.754;5.994;2024-03-08T07:10:07;2.10;99.90
59128;DHT22;44912;52.754;5.994;2024-03-08T07:12:39;2.10;99.90
59128;DHT22;44912;52.754;5.994;2024-03-08T07:15:06;2.20;99.90
59128;DHT22;44912;52.754;5.994;2024-03-08T07:17:31;2.20;99.90
59128;DHT22;44912;52.754;5.994;2024-03-08T07:20:00;2.30;99.90
59128;DHT22;44912;52.754;5.994;2024-03-08T07:22:32;2.30;99.90
59128;DHT22;44912;52.754;5.994;2024-03-08T07:24:58;2.40;99.90
59128;DHT22;44912;52.754;5.994;2024-03-08T07:27:45;2.40;99.90
59128;DHT22;44912;52.754;5.994;2024-03-08T07:30:11;2.50;99.90
59128;DHT22;44912;52.754;5.994;2024-03-08T07:32:37;2.50;99.90
59128;DHT22;44912;52.754;5.994;2024-03-08T07:35:03;2.60;99.90
59128;DHT22;44912;52.754;5.994;2024-03-08T07:37:29;2.60;99.90
59128;DHT22;44912;52.754;5.994;2024-03-08T07:39:55;2.70;99.90
59128;DHT22;44912;52.754;5.994;2024-03-08T07:42:21;2.70;99.90
59128;DHT22;44912;52.754;5.994;2024-03-08T07:44:48;2.80;99.90
59128;DHT22;44912;52.754;5.994;2024-03-08T07:47:15;2.90;99.90
59128;DHT22;44912;52.754;5.994;2024-03-08T07:49:42;3.00;99.90
59128;DHT22;44912;52.754;5.994;2024-03-08T07:52:09;3.10;99.90
59128;DHT22;44912;52.754;5.994;2024-03-08T07:54:40;3.10;99.90
59128;DHT22;44912;52.754;5.994;2024-03-08T07:57:06;3.20;99.90
59128;DHT22;44912;52.754;5.994;2024-03-08T07:59:32;3.30;99.90
59128;DHT22;44912;52.754;5.994;2024-03-08T08:01:58;3.40;99.90
59128;DHT22;44912;52.754;5.994;2024-03-08T08:04:25;3.40;99.90
59128;DHT22;44912;52.754;5.994;2024-03-08T08:06:51;3.50;99.90
59128;DHT22;44912;52.754;5.994;2024-03-08T08:09:18;3.70;99.90
59128;DHT22;44912;52.754;5.994;2024-03-08T08:11:54;3.80;99.90
59128;DHT22;44912;52.754;5.994;2024-03-08T08:14:20;3.90;99.90
59128;DHT22;44912;52.754;5.994;2024-03-08T08:16:47;4.00;99.90
59128;DHT22;44912;52.754;5.994;2024-03-08T08:19:14;4.10;99.90
59128;DHT22;44912;52.754;5.994;2024-03-08T08:21:41;4.20;99.90
59128;DHT22;44912;52.754;5.994;2024-03-08T08:24:07;4.30;99.90
59128;DHT22;44912;52.754;5.994;2024-03-08T08:26:32;4.40;99.90
59128;DHT22;44912;52.754;5.994;2024-03-08T08:28:59;4.40;99.90
59128;DHT22;44912;52.754;5.994;2024-03-08T08:31:25;4.50;99.90
59128;DHT22;44912;52.754;5.994;2024-03-08T08:33:51;4.60;99.90
59128;DHT22;44912;52.754;5.994;2024-03-08T08:36:26;4.70;99.90
59128;DHT22;44912;52.754;5.994;2024-03-08T08:38:51;4.80;99.90
59128;DHT22;44912;52.754;5.994;2024-03-08T08:41:19;4.90;99.90
59128;DHT22;44912;52.754;5.994;2024-03-08T08:43:47;4.90;99.90
59128;DHT22;44912;52.754;5.994;2024-03-08T08:46:17;5.00;99.90
59128;DHT22;44912;52.754;5.994;2024-03-08T08:48:43;5.10;99.90
59128;DHT22;44912;52.754;5.994;2024-03-08T08:51:11;5.20;99.90
59128;DHT22;44912;52.754;5.994;2024-03-08T08:53:41;5.30;99.90
59128;DHT22;44912;52.754;5.994;2024-03-08T08:56:08;5.50;99.90
59128;DHT22;44912;52.754;5.994;2024-03-08T08:58:34;5.50;99.90
59128;DHT22;44912;52.754;5.994;2024-03-08T09:01:00;5.60;99.90
59128;DHT22;44912;52.754;5.994;2024-03-08T09:03:27;5.80;99.90
59128;DHT22;44912;52.754;5.994;2024-03-08T09:05:53;5.70;99.90
59128;DHT22;44912;52.754;5.994;2024-03-08T09:08:19;5.80;99.90
59128;DHT22;44912;52.754;5.994;2024-03-08T09:10:45;5.80;99.90
59128;DHT22;44912;52.754;5.994;2024-03-08T09:13:13;6.00;99.90
59128;DHT22;44912;52.754;5.994;2024-03-08T09:15:38;6.00;99.90
59128;DHT22;44912;52.754;5.994;2024-03-08T09:18:06;6.10;99.90
59128;DHT22;44912;52.754;5.994;2024-03-08T09:20:32;6.20;99.90
59128;DHT22;44912;52.754;5.994;2024-03-08T09:22:59;6.30;99.90
59128;DHT22;44912;52.754;5.994;2024-03-08T09:25:25;6.30;99.90
59128;DHT22;44912;52.754;5.994;2024-03-08T09:27:51;6.40;99.90
59128;DHT22;44912;52.754;5.994;2024-03-08T09:30:17;6.50;99.90
59128;DHT22;44912;52.754;5.994;2024-03-08T09:32:43;6.70;99.90
59128;DHT22;44912;52.754;5.994;2024-03-08T09:35:09;6.70;99.90
59128;DHT22;44912;52.754;5.994;2024-03-08T09:37:35;6.70;99.90
59128;DHT22;44912;52.754;5.994;2024-03-08T09:40:01;6.70;99.90
59128;DHT22;44912;52.754;5.994;2024-03-08T09:42:30;6.90;99.90
59128;DHT22;44912;52.754;5.994;2024-03-08T09:44:57;7.00;99.90
59128;DHT22;44912;52.754;5.994;2024-03-08T09:47:25;6.90;99.90
59128;DHT22;44912;52.754;5.994;2024-03-08T09:49:54;7.00;99.90
59128;DHT22;44912;52.754;5.994;2024-03-08T09:52:20;7.10;99.90
59128;DHT22;44912;52.754;5.994;2024-03-08T09:54:46;7.00;99.90
59128;DHT22;44912;52.754;5.994;2024-03-08T09:57:12;7.10;99.90
59128;DHT22;44912;52.754;5.994;2024-03-08T09:59:38;7.30;99.90
59128;DHT22;44912;52.754;5.994;2024-03-08T10:02:03;7.30;99.90
59128;DHT22;44912;52.754;5.994;2024-03-08T10:04:30;7.50;99.90
59128;DHT22;44912;52.754;5.994;2024-03-08T10:06:59;7.50;99.90
59128;DHT22;44912;52.754;5.994;2024-03-08T10:09:26;7.50;99.90
59128;DHT22;44912;52.754;5.994;2024-03-08T10:11:59;7.50;99.90
59128;DHT22;44912;52.754;5.994;2024-03-08T10:14:28;7.70;99.90
59128;DHT22;44912;52.754;5.994;2024-03-08T10:16:53;7.90;99.90
59128;DHT22;44912;52.754;5.994;2024-03-08T10:19:20;7.90;99.90
59128;DHT22;44912;52.754;5.994;2024-03-08T10:21:52;8.00;99.90
59128;DHT22;44912;52.754;5.994;2024-03-08T10:24:25;8.00;99.90
59128;DHT22;44912;52.754;5.994;2024-03-08T10:26:58;8.10;99.90
59128;DHT22;44912;52.754;5.994;2024-03-08T10:29:24;8.20;99.90
59128;DHT22;44912;52.754;5.994;2024-03-08T10:31:49;8.20;99.90
59128;DHT22;44912;52.754;5.994;2024-03-08T10:34:16;8.30;99.90
59128;DHT22;44912;52.754;5.994;2024-03-08T10:36:41;8.40;99.90
59128;DHT22;44912;52.754;5.994;2024-03-08T10:39:21;8.40;99.90
59128;DHT22;44912;52.754;5.994;2024-03-08T10:41:56;8.50;99.90
59128;DHT22;44912;52.754;5.994;2024-03-08T10:49:54;8.70;99.90
59128;DHT22;44912;52.754;5.994;2024-03-08T10:52:20;8.70;99.90
59128;DHT22;44912;52.754;5.994;2024-03-08T10:54:47;8.60;99.90
59128;DHT22;44912;52.754;5.994;2024-03-08T10:57:18;8.80;99.90
59128;DHT22;44912;52.754;5.994;2024-03-08T10:59:47;8.90;99.90
59128;DHT22;44912;52.754;5.994;2024-03-08T11:02:16;9.00;99.90
59128;DHT22;44912;52.754;5.994;2024-03-08T11:04:46;9.00;99.90
59128;DHT22;44912;52.754;5.994;2024-03-08T11:07:13;9.10;99.90
59128;DHT22;44912;52.754;5.994;2024-03-08T11:09:42;9.30;99.90
59128;DHT22;44912;52.754;5.994;2024-03-08T11:12:25;9.50;99.90
59128;DHT22;44912;52.754;5.994;2024-03-08T11:14:53;9.50;99.90
59128;DHT22;44912;52.754;5.994;2024-03-08T11:19:56;9.50;99.90
59128;DHT22;44912;52.754;5.994;2024-03-08T11:22:29;9.60;99.90
59128;DHT22;44912;52.754;5.994;2024-03-08T11:25:04;9.60;99.90
59128;DHT22;44912;52.754;5.994;2024-03-08T11:27:35;9.70;99.90
59128;DHT22;44912;52.754;5.994;2024-03-08T11:30:08;9.80;99.90
59128;DHT22;44912;52.754;5.994;2024-03-08T11:32:38;9.80;99.90
59128;DHT22;44912;52.754;5.994;2024-03-08T11:35:07;9.90;99.90
59128;DHT22;44912;52.754;5.994;2024-03-08T11:37:44;9.90;99.90
59128;DHT22;44912;52.754;5.994;2024-03-08T11:40:13;10.00;99.90
59128;DHT22;44912;52.754;5.994;2024-03-08T11:42:48;10.00;99.90
59128;DHT22;44912;52.754;5.994;2024-03-08T11:45:15;10.10;99.90
59128;DHT22;44912;52.754;5.994;2024-03-08T11:47:45;10.20;99.90
59128;DHT22;44912;52.754;5.994;2024-03-08T11:50:12;10.30;99.90
59128;DHT22;44912;52.754;5.994;2024-03-08T11:52:38;10.30;99.90
59128;DHT22;44912;52.754;5.994;2024-03-08T11:55:04;10.30;99.90
59128;DHT22;44912;52.754;5.994;2024-03-08T11:57:31;10.30;99.90
59128;DHT22;44912;52.754;5.994;2024-03-08T11:59:58;10.40;99.90
59128;DHT22;44912;52.754;5.994;2024-03-08T12:02:31;10.50;99.90
59128;DHT22;44912;52.754;5.994;2024-03-08T12:04:58;10.50;99.90
59128;DHT22;44912;52.754;5.994;2024-03-08T12:07:25;10.50;99.90
59128;DHT22;44912;52.754;5.994;2024-03-08T12:10:16;10.50;99.90
59128;DHT22;44912;52.754;5.994;2024-03-08T12:12:51;10.50;99.90
59128;DHT22;44912;52.754;5.994;2024-03-08T12:15:18;10.50;99.90
59128;DHT22;44912;52.754;5.994;2024-03-08T12:17:44;10.50;99.90
59128;DHT22;44912;52.754;5.994;2024-03-08T12:20:17;10.40;99.90
59128;DHT22;44912;52.754;5.994;2024-03-08T12:22:44;10.60;99.90
59128;DHT22;44912;52.754;5.994;2024-03-08T12:25:13;10.70;99.90
59128;DHT22;44912;52.754;5.994;2024-03-08T12:27:43;10.70;99.90
59128;DHT22;44912;52.754;5.994;2024-03-08T12:30:26;10.70;99.90
59128;DHT22;44912;52.754;5.994;2024-03-08T12:32:59;10.80;99.90
59128;DHT22;44912;52.754;5.994;2024-03-08T12:35:29;10.80;99.90
59128;DHT22;44912;52.754;5.994;2024-03-08T12:37:56;10.70;99.90
59128;DHT22;44912;52.754;5.994;2024-03-08T12:40:27;10.70;99.90
59128;DHT22;44912;52.754;5.994;2024-03-08T12:42:54;10.70;99.90
59128;DHT22;44912;52.754;5.994;2024-03-08T12:45:20;10.70;99.90
59128;DHT22;44912;52.754;5.994;2024-03-08T12:47:50;10.80;99.90
59128;DHT22;44912;52.754;5.994;2024-03-08T12:50:15;10.80;99.90
59128;DHT22;44912;52.754;5.994;2024-03-08T12:52:43;10.80;99.90
59128;DHT22;44912;52.754;5.994;2024-03-08T12:55:09;10.80;99.90
59128;DHT22;44912;52.754;5.994;2024-03-08T12:57:35;10.80;99.90
59128;DHT22;44912;52.754;5.994;2024-03-08T13:00:04;10.90;99.90
59128;DHT22;44912;52.754;5.994;2024-03-08T13:02:30;11.00;99.90
59128;DHT22;44912;52.754;5.994;2024-03-08T13:04:58;11.00;99.90
59128;DHT22;44912;52.754;5.994;2024-03-08T13:07:24;11.10;99.90
59128;DHT22;44912;52.754;5.994;2024-03-08T13:09:54;11.10;99.90
59128;DHT22;44912;52.754;5.994;2024-03-08T13:12:21;11.10;99.90
59128;DHT22;44912;52.754;5.994;2024-03-08T13:14:47;11.10;99.90
59128;DHT22;44912;52.754;5.994;2024-03-08T13:17:16;11.10;99.90
59128;DHT22;44912;52.754;5.994;2024-03-08T13:19:44;11.00;99.90
59128;DHT22;44912;52.754;5.994;2024-03-08T13:22:10;11.00;99.90
59128;DHT22;44912;52.754;5.994;2024-03-08T13:24:44;11.00;99.90
59128;DHT22;44912;52.754;5.994;2024-03-08T13:27:11;11.00;99.90
59128;DHT22;44912;52.754;5.994;2024-03-08T13:29:46;11.00;99.90
59128;DHT22;44912;52.754;5.994;2024-03-08T13:32:13;11.00;99.90
59128;DHT22;44912;52.754;5.994;2024-03-08T13:34:46;10.90;99.90
59128;DHT22;44912;52.754;5.994;2024-03-08T13:37:12;10.90;99.90
59128;DHT22;44912;52.754;5.994;2024-03-08T13:39:41;10.90;99.90
59128;DHT22;44912;52.754;5.994;2024-03-08T13:42:12;10.90;99.90
59128;DHT22;44912;52.754;5.994;2024-03-08T13:44:42;10.80;99.90
59128;DHT22;44912;52.754;5.994;2024-03-08T13:47:08;10.80;99.90
59128;DHT22;44912;52.754;5.994;2024-03-08T13:49:34;10.80;99.90
59128;DHT22;44912;52.754;5.994;2024-03-08T13:52:00;10.80;99.90
59128;DHT22;44912;52.754;5.994;2024-03-08T13:54:25;10.80;99.90
59128;DHT22;44912;52.754;5.994;2024-03-08T13:56:52;10.90;99.90
59128;DHT22;44912;52.754;5.994;2024-03-08T13:59:20;10.90;99.90
59128;DHT22;44912;52.754;5.994;2024-03-08T14:01:48;10.90;99.90
59128;DHT22;44912;52.754;5.994;2024-03-08T14:04:14;11.00;99.90
59128;DHT22;44912;52.754;5.994;2024-03-08T14:06:42;11.00;99.90
59128;DHT22;44912;52.754;5.994;2024-03-08T14:09:11;11.00;99.90
59128;DHT22;44912;52.754;5.994;2024-03-08T14:11:45;11.00;99.90
59128;DHT22;44912;52.754;5.994;2024-03-08T14:14:11;10.90;99.90
59128;DHT22;44912;52.754;5.994;2024-03-08T14:16:40;10.90;99.90
59128;DHT22;44912;52.754;5.994;2024-03-08T14:19:06;10.80;99.90
59128;DHT22;44912;52.754;5.994;2024-03-08T14:21:32;10.90;99.90
59128;DHT22;44912;52.754;5.994;2024-03-08T14:23:58;10.90;99.90
59128;DHT22;44912;52.754;5.994;2024-03-08T14:26:24;10.90;99.90
59128;DHT22;44912;52.754;5.994;2024-03-08T14:28:50;10.90;99.90
59128;DHT22;44912;52.754;5.994;2024-03-08T14:31:20;10.90;99.90
59128;DHT22;44912;52.754;5.994;2024-03-08T14:33:49;11.00;99.90
59128;DHT22;44912;52.754;5.994;2024-03-08T14:36:15;10.90;99.90
59128;DHT22;44912;52.754;5.994;2024-03-08T14:38:51;10.90;99.90
59128;DHT22;44912;52.754;5.994;2024-03-08T14:41:18;10.90;99.90
59128;DHT22;44912;52.754;5.994;2024-03-08T14:43:44;10.80;99.90
59128;DHT22;44912;52.754;5.994;2024-03-08T14:46:13;10.80;99.90
59128;DHT22;44912;52.754;5.994;2024-03-08T14:48:43;10.80;99.90
59128;DHT22;44912;52.754;5.994;2024-03-08T14:51:09;10.80;99.90
59128;DHT22;44912;52.754;5.994;2024-03-08T14:53:36;10.80;99.90
59128;DHT22;44912;52.754;5.994;2024-03-08T14:56:07;10.80;99.90
59128;DHT22;44912;52.754;5.994;2024-03-08T14:58:33;10.70;99.90
59128;DHT22;44912;52.754;5.994;2024-03-08T15:00:59;10.70;99.90
59128;DHT22;44912;52.754;5.994;2024-03-08T15:03:26;10.70;99.90
59128;DHT22;44912;52.754;5.994;2024-03-08T15:05:52;10.70;99.90
59128;DHT22;44912;52.754;5.994;2024-03-08T15:08:19;10.60;99.90
59128;DHT22;44912;52.754;5.994;2024-03-08T15:10:48;10.60;99.90
59128;DHT22;44912;52.754;5.994;2024-03-08T15:13:19;10.60;99.90
59128;DHT22;44912;52.754;5.994;2024-03-08T15:15:53;10.60;99.90
59128;DHT22;44912;52.754;5.994;2024-03-08T15:18:23;10.60;99.90
59128;DHT22;44912;52.754;5.994;2024-03-08T15:20:56;10.60;99.90
59128;DHT22;44912;52.754;5.994;2024-03-08T15:23:21;10.60;99.90
59128;DHT22;44912;52.754;5.994;2024-03-08T15:25:48;10.60;99.90
59128;DHT22;44912;52.754;5.994;2024-03-08T15:28:15;10.60;99.90
59128;DHT22;44912;52.754;5.994;2024-03-08T15:30:43;10.60;99.90
59128;DHT22;44912;52.754;5.994;2024-03-08T15:33:12;10.60;99.90
59128;DHT22;44912;52.754;5.994;2024-03-08T15:35:41;10.60;99.90
59128;DHT22;44912;52.754;5.994;2024-03-08T15:38:07;10.60;99.90
59128;DHT22;44912;52.754;5.994;2024-03-08T15:40:33;10.60;99.90
59128;DHT22;44912;52.754;5.994;2024-03-08T15:43:00;10.50;99.90
59128;DHT22;44912;52.754;5.994;2024-03-08T15:45:26;10.50;99.90
59128;DHT22;44912;52.754;5.994;2024-03-08T15:47:53;10.40;99.90
59128;DHT22;44912;52.754;5.994;2024-03-08T15:50:19;10.40;99.90
59128;DHT22;44912;52.754;5.994;2024-03-08T15:52:49;10.40;99.90